sensor_id;sensor_type;location;lat;lon;timestamp;temperature;humidity
72114;SHT31;59989;46.220;19.888;2023-08-01T00:01:16;15.64;87.52
72114;SHT31;59989;46.220;19.888;2023-08-01T00:04:19;15.59;87.90
72114;SHT31;59989;46.220;19.888;2023-08-01T00:07:21;15.55;87.95
72114;SHT31;59989;46.220;19.888;2023-08-01T00:10:24;15.47;87.78
72114;SHT31;59989;46.220;19.888;2023-08-01T00:13:26;15.43;87.69
72114;SHT31;59989;46.220;19.888;2023-08-01T00:16:29;15.39;87.84
72114;SHT31;59989;46.220;19.888;2023-08-01T00:19:32;15.34;88.28
72114;SHT31;59989;46.220;19.888;2023-08-01T00:22:35;15.38;88.50
72114;SHT31;59989;46.220;19.888;2023-08-01T00:25:37;15.34;88.95
72114;SHT31;59989;46.220;19.888;2023-08-01T00:28:40;15.31;89.21
72114;SHT31;59989;46.220;19.888;2023-08-01T00:31:43;15.26;89.01
72114;SHT31;59989;46.220;19.888;2023-08-01T00:34:46;15.32;89.28
72114;SHT31;59989;46.220;19.888;2023-08-01T00:37:49;15.34;89.52
72114;SHT31;59989;46.220;19.888;2023-08-01T00:40:51;15.28;89.76
72114;SHT31;59989;46.220;19.888;2023-08-01T00:43:54;15.25;89.92
72114;SHT31;59989;46.220;19.888;2023-08-01T00:46:57;15.21;89.86
72114;SHT31;59989;46.220;19.888;2023-08-01T00:50:01;15.18;89.79
72114;SHT31;59989;46.220;19.888;2023-08-01T00:53:04;15.16;89.71
72114;SHT31;59989;46.220;19.888;2023-08-01T00:56:08;15.12;90.03
72114;SHT31;59989;46.220;19.888;2023-08-01T00:59:12;15.14;90.33
72114;SHT31;59989;46.220;19.888;2023-08-01T01:02:15;15.12;90.70
72114;SHT31;59989;46.220;19.888;2023-08-01T01:05:19;15.08;90.30
72114;SHT31;59989;46.220;19.888;2023-08-01T01:08:23;15.11;90.21
72114;SHT31;59989;46.220;19.888;2023-08-01T01:11:25;15.11;90.09
72114;SHT31;59989;46.220;19.888;2023-08-01T01:14:28;15.11;90.67
72114;SHT31;59989;46.220;19.888;2023-08-01T01:17:31;15.06;90.38
72114;SHT31;59989;46.220;19.888;2023-08-01T01:20:35;15.04;90.03
72114;SHT31;59989;46.220;19.888;2023-08-01T01:23:38;14.97;90.05
72114;SHT31;59989;46.220;19.888;2023-08-01T01:26:42;14.94;90.11
72114;SHT31;59989;46.220;19.888;2023-08-01T01:29:47;14.92;90.87
72114;SHT31;59989;46.220;19.888;2023-08-01T01:32:51;14.89;90.97
72114;SHT31;59989;46.220;19.888;2023-08-01T01:35:54;14.88;91.13
72114;SHT31;59989;46.220;19.888;2023-08-01T01:38:57;14.85;91.58
72114;SHT31;59989;46.220;19.888;2023-08-01T01:41:59;14.87;91.51
72114;SHT31;59989;46.220;19.888;2023-08-01T01:45:02;14.83;91.54
72114;SHT31;59989;46.220;19.888;2023-08-01T01:48:04;14.77;91.02
72114;SHT31;59989;46.220;19.888;2023-08-01T01:51:07;14.73;91.14
72114;SHT31;59989;46.220;19.888;2023-08-01T01:54:10;14.67;91.31
72114;SHT31;59989;46.220;19.888;2023-08-01T01:57:12;14.68;91.89
72114;SHT31;59989;46.220;19.888;2023-08-01T02:00:15;14.66;92.00
72114;SHT31;59989;46.220;19.888;2023-08-01T02:03:18;14.63;91.99
72114;SHT31;59989;46.220;19.888;2023-08-01T02:06:20;14.59;91.81
72114;SHT31;59989;46.220;19.888;2023-08-01T02:09:23;14.56;91.70
72114;SHT31;59989;46.220;19.888;2023-08-01T02:12:27;14.55;91.88
72114;SHT31;59989;46.220;19.888;2023-08-01T02:15:30;14.51;92.23
72114;SHT31;59989;46.220;19.888;2023-08-01T02:18:33;14.56;92.64
72114;SHT31;59989;46.220;19.888;2023-08-01T02:21:35;14.55;92.54
72114;SHT31;59989;46.220;19.888;2023-08-01T02:24:38;14.55;92.53
72114;SHT31;59989;46.220;19.888;2023-08-01T02:27:40;14.49;92.19
72114;SHT31;59989;46.220;19.888;2023-08-01T02:30:43;14.49;92.89
72114;SHT31;59989;46.220;19.888;2023-08-01T02:33:46;14.44;92.90
72114;SHT31;59989;46.220;19.888;2023-08-01T02:36:48;14.40;92.86
72114;SHT31;59989;46.220;19.888;2023-08-01T02:39:51;14.44;93.16
72114;SHT31;59989;46.220;19.888;2023-08-01T02:42:53;14.40;93.27
72114;SHT31;59989;46.220;19.888;2023-08-01T02:45:56;14.34;92.95
72114;SHT31;59989;46.220;19.888;2023-08-01T02:48:58;14.34;93.15
72114;SHT31;59989;46.220;19.888;2023-08-01T02:52:01;14.36;93.18
72114;SHT31;59989;46.220;19.888;2023-08-01T02:55:04;14.30;92.87
72114;SHT31;59989;46.220;19.888;2023-08-01T02:58:06;14.30;93.12
72114;SHT31;59989;46.220;19.888;2023-08-01T03:01:09;14.28;93.20
72114;SHT31;59989;46.220;19.888;2023-08-01T03:04:12;14.25;93.35
72114;SHT31;59989;46.220;19.888;2023-08-01T03:07:15;14.63;94.19
72114;SHT31;59989;46.220;19.888;2023-08-01T03:10:18;14.67;93.70
72114;SHT31;59989;46.220;19.888;2023-08-01T03:13:37;14.59;93.56
72114;SHT31;59989;46.220;19.888;2023-08-01T03:16:40;14.57;93.53
72114;SHT31;59989;46.220;19.888;2023-08-01T03:19:43;14.60;93.17
72114;SHT31;59989;46.220;19.888;2023-08-01T03:22:45;14.66;93.08
72114;SHT31;59989;46.220;19.888;2023-08-01T03:25:48;14.60;92.64
72114;SHT31;59989;46.220;19.888;2023-08-01T03:28:50;14.59;92.50
72114;SHT31;59989;46.220;19.888;2023-08-01T03:31:53;14.56;93.05
72114;SHT31;59989;46.220;19.888;2023-08-01T03:34:56;14.64;92.37
72114;SHT31;59989;46.220;19.888;2023-08-01T03:37:58;14.68;92.29
72114;SHT31;59989;46.220;19.888;2023-08-01T03:41:01;14.71;92.42
72114;SHT31;59989;46.220;19.888;2023-08-01T03:44:04;14.71;92.28
72114;SHT31;59989;46.220;19.888;2023-08-01T03:47:06;14.76;92.41
72114;SHT31;59989;46.220;19.888;2023-08-01T03:50:09;14.78;92.44
72114;SHT31;59989;46.220;19.888;2023-08-01T03:53:12;14.81;91.96
72114;SHT31;59989;46.220;19.888;2023-08-01T03:56:14;14.80;92.01
72114;SHT31;59989;46.220;19.888;2023-08-01T03:59:17;14.83;91.84
72114;SHT31;59989;46.220;19.888;2023-08-01T04:02:20;14.85;91.64
72114;SHT31;59989;46.220;19.888;2023-08-01T04:05:23;14.88;91.40
72114;SHT31;59989;46.220;19.888;2023-08-01T04:08:26;14.91;91.46
72114;SHT31;59989;46.220;19.888;2023-08-01T04:11:29;14.92;91.32
72114;SHT31;59989;46.220;19.888;2023-08-01T04:14:33;14.98;91.48
72114;SHT31;59989;46.220;19.888;2023-08-01T04:17:36;15.01;91.64
72114;SHT31;59989;46.220;19.888;2023-08-01T04:20:38;15.08;91.70
72114;SHT31;59989;46.220;19.888;2023-08-01T04:23:41;15.12;91.48
72114;SHT31;59989;46.220;19.888;2023-08-01T04:26:43;15.16;90.91
72114;SHT31;59989;46.220;19.888;2023-08-01T04:29:47;15.18;90.55
72114;SHT31;59989;46.220;19.888;2023-08-01T04:32:50;15.26;91.11
72114;SHT31;59989;46.220;19.888;2023-08-01T04:35:52;15.40;90.80
72114;SHT31;59989;46.220;19.888;2023-08-01T04:38:55;15.46;90.24
72114;SHT31;59989;46.220;19.888;2023-08-01T04:41:57;15.55;89.80
72114;SHT31;59989;46.220;19.888;2023-08-01T04:45:00;15.67;89.39
72114;SHT31;59989;46.220;19.888;2023-08-01T04:48:02;15.76;88.99
72114;SHT31;59989;46.220;19.888;2023-08-01T04:51:05;15.83;88.25
72114;SHT31;59989;46.220;19.888;2023-08-01T04:54:07;15.91;87.32
72114;SHT31;59989;46.220;19.888;2023-08-01T04:57:10;16.17;88.22
72114;SHT31;59989;46.220;19.888;2023-08-01T05:00:12;16.33;87.12
72114;SHT31;59989;46.220;19.888;2023-08-01T05:03:15;16.49;86.25
72114;SHT31;59989;46.220;19.888;2023-08-01T05:06:18;16.56;85.35
72114;SHT31;59989;46.220;19.888;2023-08-01T05:09:20;16.75;85.15
72114;SHT31;59989;46.220;19.888;2023-08-01T05:12:23;16.90;85.81
72114;SHT31;59989;46.220;19.888;2023-08-01T05:15:25;16.96;83.79
72114;SHT31;59989;46.220;19.888;2023-08-01T05:18:30;17.04;83.37
72114;SHT31;59989;46.220;19.888;2023-08-01T05:21:32;17.17;84.30
72114;SHT31;59989;46.220;19.888;2023-08-01T05:24:35;17.34;83.72
72114;SHT31;59989;46.220;19.888;2023-08-01T05:27:37;17.45;83.12
72114;SHT31;59989;46.220;19.888;2023-08-01T05:30:40;17.57;82.75
72114;SHT31;59989;46.220;19.888;2023-08-01T05:33:43;17.68;81.63
72114;SHT31;59989;46.220;19.888;2023-08-01T05:36:45;17.83;81.19
72114;SHT31;59989;46.220;19.888;2023-08-01T05:39:48;17.97;81.08
72114;SHT31;59989;46.220;19.888;2023-08-01T05:42:50;18.29;79.57
72114;SHT31;59989;46.220;19.888;2023-08-01T05:45:53;18.55;79.78
72114;SHT31;59989;46.220;19.888;2023-08-01T05:48:55;18.68;78.22
72114;SHT31;59989;46.220;19.888;2023-08-01T05:51:58;18.84;77.17
72114;SHT31;59989;46.220;19.888;2023-08-01T05:55:00;19.01;76.76
72114;SHT31;59989;46.220;19.888;2023-08-01T05:58:03;19.24;75.33
72114;SHT31;59989;46.220;19.888;2023-08-01T06:01:05;19.49;74.07
72114;SHT31;59989;46.220;19.888;2023-08-01T06:04:08;19.64;74.56
72114;SHT31;59989;46.220;19.888;2023-08-01T06:07:11;19.81;73.77
72114;SHT31;59989;46.220;19.888;2023-08-01T06:10:13;20.00;74.36
72114;SHT31;59989;46.220;19.888;2023-08-01T06:13:16;20.29;74.60
72114;SHT31;59989;46.220;19.888;2023-08-01T06:16:18;20.53;72.38
72114;SHT31;59989;46.220;19.888;2023-08-01T06:19:21;20.65;71.06
72114;SHT31;59989;46.220;19.888;2023-08-01T06:22:23;20.81;71.00
72114;SHT31;59989;46.220;19.888;2023-08-01T06:25:26;21.07;69.88
72114;SHT31;59989;46.220;19.888;2023-08-01T06:28:28;21.27;69.35
72114;SHT31;59989;46.220;19.888;2023-08-01T06:31:31;21.46;69.42
72114;SHT31;59989;46.220;19.888;2023-08-01T06:34:34;21.61;68.12
72114;SHT31;59989;46.220;19.888;2023-08-01T06:37:36;21.79;67.31
72114;SHT31;59989;46.220;19.888;2023-08-01T06:40:39;22.04;66.56
72114;SHT31;59989;46.220;19.888;2023-08-01T06:43:41;22.27;65.20
72114;SHT31;59989;46.220;19.888;2023-08-01T06:46:44;22.60;64.93
72114;SHT31;59989;46.220;19.888;2023-08-01T06:49:46;22.60;63.73
72114;SHT31;59989;46.220;19.888;2023-08-01T06:52:49;22.84;63.66
72114;SHT31;59989;46.220;19.888;2023-08-01T06:55:51;23.15;59.29
72114;SHT31;59989;46.220;19.888;2023-08-01T06:58:54;23.34;59.13
72114;SHT31;59989;46.220;19.888;2023-08-01T07:01:56;23.64;58.56
72114;SHT31;59989;46.220;19.888;2023-08-01T07:04:59;23.85;58.73
72114;SHT31;59989;46.220;19.888;2023-08-01T07:08:02;24.16;57.60
72114;SHT31;59989;46.220;19.888;2023-08-01T07:11:04;24.33;57.26
72114;SHT31;59989;46.220;19.888;2023-08-01T07:14:07;24.53;57.05
72114;SHT31;59989;46.220;19.888;2023-08-01T07:17:09;24.74;57.27
72114;SHT31;59989;46.220;19.888;2023-08-01T07:20:12;24.93;55.01
72114;SHT31;59989;46.220;19.888;2023-08-01T07:23:14;25.10;54.22
72114;SHT31;59989;46.220;19.888;2023-08-01T07:26:17;25.42;53.75
72114;SHT31;59989;46.220;19.888;2023-08-01T07:29:20;25.58;54.61
72114;SHT31;59989;46.220;19.888;2023-08-01T07:32:22;25.89;52.44
72114;SHT31;59989;46.220;19.888;2023-08-01T07:35:29;26.13;52.58
72114;SHT31;59989;46.220;19.888;2023-08-01T07:38:32;26.06;52.08
72114;SHT31;59989;46.220;19.888;2023-08-01T07:41:34;26.38;51.44
72114;SHT31;59989;46.220;19.888;2023-08-01T07:44:37;26.57;51.41
72114;SHT31;59989;46.220;19.888;2023-08-01T07:47:40;26.38;51.98
72114;SHT31;59989;46.220;19.888;2023-08-01T07:50:42;26.74;52.53
72114;SHT31;59989;46.220;19.888;2023-08-01T07:53:45;27.00;51.11
72114;SHT31;59989;46.220;19.888;2023-08-01T07:56:47;27.13;51.11
72114;SHT31;59989;46.220;19.888;2023-08-01T07:59:51;27.06;50.49
72114;SHT31;59989;46.220;19.888;2023-08-01T08:02:53;27.00;49.49
72114;SHT31;59989;46.220;19.888;2023-08-01T08:05:57;27.17;49.10
72114;SHT31;59989;46.220;19.888;2023-08-01T08:09:00;27.57;49.31
72114;SHT31;59989;46.220;19.888;2023-08-01T08:12:03;27.63;49.00
72114;SHT31;59989;46.220;19.888;2023-08-01T08:15:06;27.68;48.84
72114;SHT31;59989;46.220;19.888;2023-08-01T08:18:08;27.47;47.98
72114;SHT31;59989;46.220;19.888;2023-08-01T08:21:12;27.39;48.06
72114;SHT31;59989;46.220;19.888;2023-08-01T08:24:14;27.02;48.79
72114;SHT31;59989;46.220;19.888;2023-08-01T08:27:17;27.14;48.88
72114;SHT31;59989;46.220;19.888;2023-08-01T08:30:19;27.51;48.09
72114;SHT31;59989;46.220;19.888;2023-08-01T08:33:22;27.87;48.67
72114;SHT31;59989;46.220;19.888;2023-08-01T08:36:24;28.09;47.99
72114;SHT31;59989;46.220;19.888;2023-08-01T08:39:27;28.12;47.74
72114;SHT31;59989;46.220;19.888;2023-08-01T08:42:32;28.29;45.88
72114;SHT31;59989;46.220;19.888;2023-08-01T08:45:35;28.59;47.64
72114;SHT31;59989;46.220;19.888;2023-08-01T08:48:39;28.29;46.32
72114;SHT31;59989;46.220;19.888;2023-08-01T08:51:43;28.49;46.13
72114;SHT31;59989;46.220;19.888;2023-08-01T08:54:47;28.32;44.89
72114;SHT31;59989;46.220;19.888;2023-08-01T08:57:50;28.91;44.94
72114;SHT31;59989;46.220;19.888;2023-08-01T09:00:54;29.07;44.21
72114;SHT31;59989;46.220;19.888;2023-08-01T09:03:57;29.18;45.21
72114;SHT31;59989;46.220;19.888;2023-08-01T09:07:09;29.34;45.57
72114;SHT31;59989;46.220;19.888;2023-08-01T09:10:12;29.48;44.67
72114;SHT31;59989;46.220;19.888;2023-08-01T09:13:15;29.52;44.79
72114;SHT31;59989;46.220;19.888;2023-08-01T09:16:17;29.55;45.20
72114;SHT31;59989;46.220;19.888;2023-08-01T09:19:23;29.69;44.63
72114;SHT31;59989;46.220;19.888;2023-08-01T09:22:25;29.69;43.76
72114;SHT31;59989;46.220;19.888;2023-08-01T09:25:31;29.93;43.63
72114;SHT31;59989;46.220;19.888;2023-08-01T09:28:37;29.55;42.92
72114;SHT31;59989;46.220;19.888;2023-08-01T09:31:41;30.18;43.06
72114;SHT31;59989;46.220;19.888;2023-08-01T09:34:44;30.81;41.60
72114;SHT31;59989;46.220;19.888;2023-08-01T09:37:47;30.78;41.57
72114;SHT31;59989;46.220;19.888;2023-08-01T09:40:49;30.82;42.20
72114;SHT31;59989;46.220;19.888;2023-08-01T09:43:52;30.68;41.04
72114;SHT31;59989;46.220;19.888;2023-08-01T09:47:03;30.71;40.68
72114;SHT31;59989;46.220;19.888;2023-08-01T09:50:06;30.38;41.10
72114;SHT31;59989;46.220;19.888;2023-08-01T09:53:09;31.00;42.30
72114;SHT31;59989;46.220;19.888;2023-08-01T09:56:13;31.51;41.96
72114;SHT31;59989;46.220;19.888;2023-08-01T09:59:20;30.99;40.24
72114;SHT31;59989;46.220;19.888;2023-08-01T10:02:25;31.30;39.51
72114;SHT31;59989;46.220;19.888;2023-08-01T10:05:32;31.81;39.38
72114;SHT31;59989;46.220;19.888;2023-08-01T10:08:36;32.19;39.73
72114;SHT31;59989;46.220;19.888;2023-08-01T10:11:39;32.39;38.52
72114;SHT31;59989;46.220;19.888;2023-08-01T10:14:43;32.73;37.61
72114;SHT31;59989;46.220;19.888;2023-08-01T10:17:46;32.36;37.88
72114;SHT31;59989;46.220;19.888;2023-08-01T10:20:49;32.32;36.90
72114;SHT31;59989;46.220;19.888;2023-08-01T10:23:53;32.77;37.27
72114;SHT31;59989;46.220;19.888;2023-08-01T10:26:57;33.62;35.62
72114;SHT31;59989;46.220;19.888;2023-08-01T10:30:01;33.83;34.85
72114;SHT31;59989;46.220;19.888;2023-08-01T10:33:04;34.87;32.65
72114;SHT31;59989;46.220;19.888;2023-08-01T10:36:22;34.51;32.62
72114;SHT31;59989;46.220;19.888;2023-08-01T10:39:27;33.93;34.64
72114;SHT31;59989;46.220;19.888;2023-08-01T10:42:43;34.13;35.42
72114;SHT31;59989;46.220;19.888;2023-08-01T10:45:46;32.53;35.40
72114;SHT31;59989;46.220;19.888;2023-08-01T10:48:53;32.15;35.66
72114;SHT31;59989;46.220;19.888;2023-08-01T10:51:56;33.07;35.50
72114;SHT31;59989;46.220;19.888;2023-08-01T10:55:01;32.97;34.87
72114;SHT31;59989;46.220;19.888;2023-08-01T10:58:04;33.25;35.29
72114;SHT31;59989;46.220;19.888;2023-08-01T11:01:07;34.19;34.00
72114;SHT31;59989;46.220;19.888;2023-08-01T11:04:17;34.91;33.65
72114;SHT31;59989;46.220;19.888;2023-08-01T11:07:19;34.37;34.10
72114;SHT31;59989;46.220;19.888;2023-08-01T11:10:23;33.90;33.31
72114;SHT31;59989;46.220;19.888;2023-08-01T11:13:26;35.12;30.76
72114;SHT31;59989;46.220;19.888;2023-08-01T11:16:28;34.53;32.98
72114;SHT31;59989;46.220;19.888;2023-08-01T11:19:31;34.54;32.80
72114;SHT31;59989;46.220;19.888;2023-08-01T11:22:35;35.80;31.62
72114;SHT31;59989;46.220;19.888;2023-08-01T11:25:40;35.02;32.12
72114;SHT31;59989;46.220;19.888;2023-08-01T11:28:43;36.02;29.90
72114;SHT31;59989;46.220;19.888;2023-08-01T11:31:59;35.80;28.33
72114;SHT31;59989;46.220;19.888;2023-08-01T11:35:02;35.11;31.10
72114;SHT31;59989;46.220;19.888;2023-08-01T11:38:05;34.99;32.19
72114;SHT31;59989;46.220;19.888;2023-08-01T11:41:09;35.56;28.41
72114;SHT31;59989;46.220;19.888;2023-08-01T11:44:11;36.15;29.77
72114;SHT31;59989;46.220;19.888;2023-08-01T11:47:15;36.73;28.55
72114;SHT31;59989;46.220;19.888;2023-08-01T11:50:25;37.13;28.28
72114;SHT31;59989;46.220;19.888;2023-08-01T11:53:28;37.84;27.99
72114;SHT31;59989;46.220;19.888;2023-08-01T11:56:31;37.71;26.97
72114;SHT31;59989;46.220;19.888;2023-08-01T11:59:34;37.77;27.55
72114;SHT31;59989;46.220;19.888;2023-08-01T12:02:36;37.95;25.55
72114;SHT31;59989;46.220;19.888;2023-08-01T12:05:40;39.01;25.79
72114;SHT31;59989;46.220;19.888;2023-08-01T12:08:50;38.18;26.90
72114;SHT31;59989;46.220;19.888;2023-08-01T12:12:01;38.30;26.13
72114;SHT31;59989;46.220;19.888;2023-08-01T12:15:05;37.74;27.17
72114;SHT31;59989;46.220;19.888;2023-08-01T12:18:07;37.90;27.65
72114;SHT31;59989;46.220;19.888;2023-08-01T12:21:10;36.53;28.68
72114;SHT31;59989;46.220;19.888;2023-08-01T12:24:12;36.56;29.80
72114;SHT31;59989;46.220;19.888;2023-08-01T12:27:15;35.83;31.75
72114;SHT31;59989;46.220;19.888;2023-08-01T12:30:17;34.71;30.61
72114;SHT31;59989;46.220;19.888;2023-08-01T12:33:20;34.72;31.31
72114;SHT31;59989;46.220;19.888;2023-08-01T12:36:26;34.17;32.68
72114;SHT31;59989;46.220;19.888;2023-08-01T12:39:29;33.80;32.35
72114;SHT31;59989;46.220;19.888;2023-08-01T12:42:31;33.25;33.18
72114;SHT31;59989;46.220;19.888;2023-08-01T12:45:33;33.04;33.67
72114;SHT31;59989;46.220;19.888;2023-08-01T12:48:36;32.88;34.11
72114;SHT31;59989;46.220;19.888;2023-08-01T12:51:38;32.72;34.71
72114;SHT31;59989;46.220;19.888;2023-08-01T12:54:41;32.53;34.46
72114;SHT31;59989;46.220;19.888;2023-08-01T12:57:43;32.56;35.28
72114;SHT31;59989;46.220;19.888;2023-08-01T13:00:46;32.70;34.57
72114;SHT31;59989;46.220;19.888;2023-08-01T13:03:49;32.74;34.37
72114;SHT31;59989;46.220;19.888;2023-08-01T13:06:51;34.09;33.14
72114;SHT31;59989;46.220;19.888;2023-08-01T13:09:54;33.85;32.87
72114;SHT31;59989;46.220;19.888;2023-08-01T13:12:56;33.61;33.89
72114;SHT31;59989;46.220;19.888;2023-08-01T13:15:59;33.83;33.86
72114;SHT31;59989;46.220;19.888;2023-08-01T13:19:01;33.41;35.83
72114;SHT31;59989;46.220;19.888;2023-08-01T13:22:04;33.52;35.10
72114;SHT31;59989;46.220;19.888;2023-08-01T13:25:07;33.75;34.94
72114;SHT31;59989;46.220;19.888;2023-08-01T13:28:09;34.36;33.18
72114;SHT31;59989;46.220;19.888;2023-08-01T13:31:12;35.11;32.48
72114;SHT31;59989;46.220;19.888;2023-08-01T13:34:15;35.15;33.00
72114;SHT31;59989;46.220;19.888;2023-08-01T13:37:17;34.44;34.64
72114;SHT31;59989;46.220;19.888;2023-08-01T13:40:19;34.10;34.15
72114;SHT31;59989;46.220;19.888;2023-08-01T13:43:22;34.47;35.47
72114;SHT31;59989;46.220;19.888;2023-08-01T13:46:24;33.78;33.49
72114;SHT31;59989;46.220;19.888;2023-08-01T13:49:30;33.15;34.26
72114;SHT31;59989;46.220;19.888;2023-08-01T13:52:32;33.20;35.98
72114;SHT31;59989;46.220;19.888;2023-08-01T13:55:35;32.96;35.96
72114;SHT31;59989;46.220;19.888;2023-08-01T13:58:41;32.60;38.20
72114;SHT31;59989;46.220;19.888;2023-08-01T14:01:43;31.81;37.06
72114;SHT31;59989;46.220;19.888;2023-08-01T14:04:46;31.92;37.99
72114;SHT31;59989;46.220;19.888;2023-08-01T14:07:48;32.28;38.88
72114;SHT31;59989;46.220;19.888;2023-08-01T14:10:51;33.63;36.63
72114;SHT31;59989;46.220;19.888;2023-08-01T14:13:53;37.14;32.34
72114;SHT31;59989;46.220;19.888;2023-08-01T14:16:56;37.90;31.06
72114;SHT31;59989;46.220;19.888;2023-08-01T14:19:58;38.46;30.24
72114;SHT31;59989;46.220;19.888;2023-08-01T14:23:01;38.06;30.54
72114;SHT31;59989;46.220;19.888;2023-08-01T14:26:03;36.08;33.02
72114;SHT31;59989;46.220;19.888;2023-08-01T14:29:06;35.45;31.49
72114;SHT31;59989;46.220;19.888;2023-08-01T14:32:09;36.71;30.18
72114;SHT31;59989;46.220;19.888;2023-08-01T14:35:11;38.16;29.48
72114;SHT31;59989;46.220;19.888;2023-08-01T14:38:14;37.95;28.80
72114;SHT31;59989;46.220;19.888;2023-08-01T14:41:16;37.67;29.26
72114;SHT31;59989;46.220;19.888;2023-08-01T14:44:39;36.31;31.12
72114;SHT31;59989;46.220;19.888;2023-08-01T14:47:42;35.02;31.62
72114;SHT31;59989;46.220;19.888;2023-08-01T14:50:45;34.54;32.92
72114;SHT31;59989;46.220;19.888;2023-08-01T14:53:47;33.45;33.35
72114;SHT31;59989;46.220;19.888;2023-08-01T14:56:50;32.86;34.06
72114;SHT31;59989;46.220;19.888;2023-08-01T14:59:52;33.55;34.09
72114;SHT31;59989;46.220;19.888;2023-08-01T15:02:55;35.11;32.55
72114;SHT31;59989;46.220;19.888;2023-08-01T15:06:05;35.59;30.50
72114;SHT31;59989;46.220;19.888;2023-08-01T15:09:08;37.42;29.06
72114;SHT31;59989;46.220;19.888;2023-08-01T15:12:12;39.35;28.16
72114;SHT31;59989;46.220;19.888;2023-08-01T15:15:14;38.85;27.06
72114;SHT31;59989;46.220;19.888;2023-08-01T15:18:17;39.53;27.19
72114;SHT31;59989;46.220;19.888;2023-08-01T15:21:19;38.46;28.32
72114;SHT31;59989;46.220;19.888;2023-08-01T15:24:22;38.97;27.21
72114;SHT31;59989;46.220;19.888;2023-08-01T15:27:25;35.93;30.44
72114;SHT31;59989;46.220;19.888;2023-08-01T15:30:27;35.09;31.52
72114;SHT31;59989;46.220;19.888;2023-08-01T15:33:32;34.84;31.48
72114;SHT31;59989;46.220;19.888;2023-08-01T15:36:35;33.65;34.45
72114;SHT31;59989;46.220;19.888;2023-08-01T15:39:38;32.57;35.31
72114;SHT31;59989;46.220;19.888;2023-08-01T15:42:40;32.46;36.82
72114;SHT31;59989;46.220;19.888;2023-08-01T15:45:43;32.18;37.46
72114;SHT31;59989;46.220;19.888;2023-08-01T15:48:45;32.49;36.47
72114;SHT31;59989;46.220;19.888;2023-08-01T15:51:48;32.11;37.59
72114;SHT31;59989;46.220;19.888;2023-08-01T15:54:50;31.58;38.54
72114;SHT31;59989;46.220;19.888;2023-08-01T15:57:52;31.09;39.36
72114;SHT31;59989;46.220;19.888;2023-08-01T16:00:56;30.62;41.05
72114;SHT31;59989;46.220;19.888;2023-08-01T16:03:59;30.41;41.22
72114;SHT31;59989;46.220;19.888;2023-08-01T16:07:02;30.20;40.88
72114;SHT31;59989;46.220;19.888;2023-08-01T16:10:04;29.82;41.63
72114;SHT31;59989;46.220;19.888;2023-08-01T16:13:08;29.79;42.00
72114;SHT31;59989;46.220;19.888;2023-08-01T16:16:11;29.65;42.17
72114;SHT31;59989;46.220;19.888;2023-08-01T16:19:13;29.70;42.83
72114;SHT31;59989;46.220;19.888;2023-08-01T16:22:16;29.99;41.95
72114;SHT31;59989;46.220;19.888;2023-08-01T16:25:18;29.97;42.35
72114;SHT31;59989;46.220;19.888;2023-08-01T16:28:21;29.65;41.56
72114;SHT31;59989;46.220;19.888;2023-08-01T16:31:23;29.56;42.58
72114;SHT31;59989;46.220;19.888;2023-08-01T16:34:27;29.41;42.78
72114;SHT31;59989;46.220;19.888;2023-08-01T16:37:30;29.27;44.22
72114;SHT31;59989;46.220;19.888;2023-08-01T16:40:32;29.03;43.25
72114;SHT31;59989;46.220;19.888;2023-08-01T16:43:35;28.87;44.18
72114;SHT31;59989;46.220;19.888;2023-08-01T16:46:37;28.59;45.40
72114;SHT31;59989;46.220;19.888;2023-08-01T16:49:40;28.40;43.83
72114;SHT31;59989;46.220;19.888;2023-08-01T16:52:42;28.25;44.79
72114;SHT31;59989;46.220;19.888;2023-08-01T16:55:45;28.04;46.63
72114;SHT31;59989;46.220;19.888;2023-08-01T16:58:47;27.90;45.56
72114;SHT31;59989;46.220;19.888;2023-08-01T17:01:50;27.67;45.07
72114;SHT31;59989;46.220;19.888;2023-08-01T17:04:52;27.53;45.95
72114;SHT31;59989;46.220;19.888;2023-08-01T17:07:55;27.44;45.61
72114;SHT31;59989;46.220;19.888;2023-08-01T17:11:04;27.33;46.18
72114;SHT31;59989;46.220;19.888;2023-08-01T17:14:06;27.29;45.94
72114;SHT31;59989;46.220;19.888;2023-08-01T17:17:09;27.27;46.16
72114;SHT31;59989;46.220;19.888;2023-08-01T17:20:11;27.20;46.78
72114;SHT31;59989;46.220;19.888;2023-08-01T17:23:14;27.07;48.00
72114;SHT31;59989;46.220;19.888;2023-08-01T17:26:16;27.06;47.04
72114;SHT31;59989;46.220;19.888;2023-08-01T17:29:20;26.93;47.01
72114;SHT31;59989;46.220;19.888;2023-08-01T17:32:22;26.78;48.15
72114;SHT31;59989;46.220;19.888;2023-08-01T17:35:26;26.68;48.12
72114;SHT31;59989;46.220;19.888;2023-08-01T17:38:29;26.57;48.57
72114;SHT31;59989;46.220;19.888;2023-08-01T17:41:31;26.51;48.49
72114;SHT31;59989;46.220;19.888;2023-08-01T17:44:34;26.37;49.22
72114;SHT31;59989;46.220;19.888;2023-08-01T17:47:41;26.26;49.35
72114;SHT31;59989;46.220;19.888;2023-08-01T17:50:44;26.18;49.37
72114;SHT31;59989;46.220;19.888;2023-08-01T17:53:47;26.10;49.81
72114;SHT31;59989;46.220;19.888;2023-08-01T17:56:49;26.00;50.98
72114;SHT31;59989;46.220;19.888;2023-08-01T17:59:52;25.93;50.98
72114;SHT31;59989;46.220;19.888;2023-08-01T18:02:54;25.79;50.90
72114;SHT31;59989;46.220;19.888;2023-08-01T18:06:08;25.69;51.24
72114;SHT31;59989;46.220;19.888;2023-08-01T18:09:11;25.63;51.62
72114;SHT31;59989;46.220;19.888;2023-08-01T18:12:14;25.58;51.94
72114;SHT31;59989;46.220;19.888;2023-08-01T18:15:17;25.46;53.52
72114;SHT31;59989;46.220;19.888;2023-08-01T18:18:19;25.41;54.19
72114;SHT31;59989;46.220;19.888;2023-08-01T18:21:22;25.39;53.97
72114;SHT31;59989;46.220;19.888;2023-08-01T18:24:25;25.28;53.61
72114;SHT31;59989;46.220;19.888;2023-08-01T18:27:27;25.21;54.03
72114;SHT31;59989;46.220;19.888;2023-08-01T18:30:30;25.14;55.54
72114;SHT31;59989;46.220;19.888;2023-08-01T18:33:32;25.07;55.81
72114;SHT31;59989;46.220;19.888;2023-08-01T18:36:35;24.98;56.44
72114;SHT31;59989;46.220;19.888;2023-08-01T18:39:37;24.94;55.93
72114;SHT31;59989;46.220;19.888;2023-08-01T18:42:40;24.88;56.83
72114;SHT31;59989;46.220;19.888;2023-08-01T18:45:42;24.87;57.51
72114;SHT31;59989;46.220;19.888;2023-08-01T18:48:45;24.80;57.13
72114;SHT31;59989;46.220;19.888;2023-08-01T18:51:52;24.77;58.46
72114;SHT31;59989;46.220;19.888;2023-08-01T18:54:55;24.69;58.45
72114;SHT31;59989;46.220;19.888;2023-08-01T18:57:58;24.62;58.27